sensor_id;sensor_type;location;lat;lon;timestamp;temperature;humidity
15625;DHT22;7912;51.376;6.126;2023-04-01T00:01:22;13.20;99.90
15625;DHT22;7912;51.376;6.126;2023-04-01T00:03:50;13.20;99.90
15625;DHT22;7912;51.376;6.126;2023-04-01T00:06:19;13.20;99.90
15625;DHT22;7912;51.376;6.126;2023-04-01T00:08:55;13.10;99.90
15625;DHT22;7912;51.376;6.126;2023-04-01T00:11:26;13.20;99.90
15625;DHT22;7912;51.376;6.126;2023-04-01T00:14:06;13.20;99.90
15625;DHT22;7912;51.376;6.126;2023-04-01T00:16:43;13.20;99.90
15625;DHT22;7912;51.376;6.126;2023-04-01T00:19:19;13.20;99.90
15625;DHT22;7912;51.376;6.126;2023-04-01T00:22:02;13.10;99.90
15625;DHT22;7912;51.376;6.126;2023-04-01T00:24:34;13.20;99.90
15625;DHT22;7912;51.376;6.126;2023-04-01T00:27:04;13.20;99.90
15625;DHT22;7912;51.376;6.126;2023-04-01T00:29:33;13.10;99.90
15625;DHT22;7912;51.376;6.126;2023-04-01T00:32:01;13.20;99.90
15625;DHT22;7912;51.376;6.126;2023-04-01T00:34:36;13.10;99.90
15625;DHT22;7912;51.376;6.126;2023-04-01T00:37:08;13.10;99.90
15625;DHT22;7912;51.376;6.126;2023-04-01T00:39:50;13.10;99.90
15625;DHT22;7912;51.376;6.126;2023-04-01T00:42:20;13.10;99.90
15625;DHT22;7912;51.376;6.126;2023-04-01T00:45:25;13.10;99.90
15625;DHT22;7912;51.376;6.126;2023-04-01T00:48:23;13.10;99.90
15625;DHT22;7912;51.376;6.126;2023-04-01T00:51:09;13.10;99.90
15625;DHT22;7912;51.376;6.126;2023-04-01T00:53:43;13.10;99.90
15625;DHT22;7912;51.376;6.126;2023-04-01T00:56:35;13.10;99.90
15625;DHT22;7912;51.376;6.126;2023-04-01T00:59:16;13.10;99.90
15625;DHT22;7912;51.376;6.126;2023-04-01T01:01:51;13.10;99.90
15625;DHT22;7912;51.376;6.126;2023-04-01T01:04:30;13.10;99.90
15625;DHT22;7912;51.376;6.126;2023-04-01T01:10:03;13.10;99.90
15625;DHT22;7912;51.376;6.126;2023-04-01T01:21:25;13.10;99.90
15625;DHT22;7912;51.376;6.126;2023-04-01T01:28:09;13.10;99.90
15625;DHT22;7912;51.376;6.126;2023-04-01T01:33:35;13.10;99.90
15625;DHT22;7912;51.376;6.126;2023-04-01T01:36:32;13.10;99.90
15625;DHT22;7912;51.376;6.126;2023-04-01T01:39:13;13.10;99.90
15625;DHT22;7912;51.376;6.126;2023-04-01T01:41:49;13.00;99.90
15625;DHT22;7912;51.376;6.126;2023-04-01T01:44:17;13.00;99.90
15625;DHT22;7912;51.376;6.126;2023-04-01T01:46:47;13.00;99.90
15625;DHT22;7912;51.376;6.126;2023-04-01T01:49:18;12.90;99.90
15625;DHT22;7912;51.376;6.126;2023-04-01T01:51:46;12.90;99.90
15625;DHT22;7912;51.376;6.126;2023-04-01T01:54:16;12.90;99.90
15625;DHT22;7912;51.376;6.126;2023-04-01T01:56:47;12.90;99.90
15625;DHT22;7912;51.376;6.126;2023-04-01T01:59:20;12.80;99.90
15625;DHT22;7912;51.376;6.126;2023-04-01T02:01:52;12.80;99.90
15625;DHT22;7912;51.376;6.126;2023-04-01T02:04:23;12.80;99.90
15625;DHT22;7912;51.376;6.126;2023-04-01T02:07:01;12.80;99.90
15625;DHT22;7912;51.376;6.126;2023-04-01T02:09:32;12.80;99.90
15625;DHT22;7912;51.376;6.126;2023-04-01T02:12:03;12.70;99.90
15625;DHT22;7912;51.376;6.126;2023-04-01T02:17:17;12.80;99.90
15625;DHT22;7912;51.376;6.126;2023-04-01T02:19:57;12.80;99.90
15625;DHT22;7912;51.376;6.126;2023-04-01T02:22:39;12.80;99.90
15625;DHT22;7912;51.376;6.126;2023-04-01T02:25:12;12.80;99.90
15625;DHT22;7912;51.376;6.126;2023-04-01T02:27:44;12.80;99.90
15625;DHT22;7912;51.376;6.126;2023-04-01T02:30:14;12.80;99.90
15625;DHT22;7912;51.376;6.126;2023-04-01T02:32:43;12.80;99.90
15625;DHT22;7912;51.376;6.126;2023-04-01T02:35:14;12.80;99.90
15625;DHT22;7912;51.376;6.126;2023-04-01T02:37:45;12.80;99.90
15625;DHT22;7912;51.376;6.126;2023-04-01T02:40:16;12.80;99.90
15625;DHT22;7912;51.376;6.126;2023-04-01T02:42:44;12.80;99.90
15625;DHT22;7912;51.376;6.126;2023-04-01T02:45:13;12.80;99.90
15625;DHT22;7912;51.376;6.126;2023-04-01T02:47:41;12.80;99.90
15625;DHT22;7912;51.376;6.126;2023-04-01T02:50:09;12.80;99.90
15625;DHT22;7912;51.376;6.126;2023-04-01T02:52:37;12.80;99.90
15625;DHT22;7912;51.376;6.126;2023-04-01T02:55:05;12.80;99.90
15625;DHT22;7912;51.376;6.126;2023-04-01T02:57:33;12.90;99.90
15625;DHT22;7912;51.376;6.126;2023-04-01T03:00:21;12.90;99.90
15625;DHT22;7912;51.376;6.126;2023-04-01T03:02:49;12.90;99.90
15625;DHT22;7912;51.376;6.126;2023-04-01T03:05:16;12.90;99.90
15625;DHT22;7912;51.376;6.126;2023-04-01T03:07:44;12.90;99.90
15625;DHT22;7912;51.376;6.126;2023-04-01T03:10:12;12.90;99.90
15625;DHT22;7912;51.376;6.126;2023-04-01T03:12:40;12.90;99.90
15625;DHT22;7912;51.376;6.126;2023-04-01T03:15:10;12.90;99.90
15625;DHT22;7912;51.376;6.126;2023-04-01T03:17:40;12.90;99.90
15625;DHT22;7912;51.376;6.126;2023-04-01T03:20:10;12.90;99.90
15625;DHT22;7912;51.376;6.126;2023-04-01T03:22:39;12.90;99.90
15625;DHT22;7912;51.376;6.126;2023-04-01T03:25:10;12.90;99.90
15625;DHT22;7912;51.376;6.126;2023-04-01T03:27:37;12.90;99.90
15625;DHT22;7912;51.376;6.126;2023-04-01T03:30:06;12.90;99.90
15625;DHT22;7912;51.376;6.126;2023-04-01T03:32:34;12.90;99.90
15625;DHT22;7912;51.376;6.126;2023-04-01T03:35:01;12.90;99.90
15625;DHT22;7912;51.376;6.126;2023-04-01T03:37:29;12.90;99.90
15625;DHT22;7912;51.376;6.126;2023-04-01T03:39:56;12.90;99.90
15625;DHT22;7912;51.376;6.126;2023-04-01T03:42:24;12.90;99.90
15625;DHT22;7912;51.376;6.126;2023-04-01T03:44:52;12.90;99.90
15625;DHT22;7912;51.376;6.126;2023-04-01T03:47:20;12.90;99.90
15625;DHT22;7912;51.376;6.126;2023-04-01T03:49:47;12.80;99.90
15625;DHT22;7912;51.376;6.126;2023-04-01T03:52:18;12.80;99.90
15625;DHT22;7912;51.376;6.126;2023-04-01T03:54:53;12.80;99.90
15625;DHT22;7912;51.376;6.126;2023-04-01T03:57:20;12.80;99.90
15625;DHT22;7912;51.376;6.126;2023-04-01T03:59:48;12.80;99.90
15625;DHT22;7912;51.376;6.126;2023-04-01T04:02:16;12.80;99.90
15625;DHT22;7912;51.376;6.126;2023-04-01T04:04:44;12.80;99.90
15625;DHT22;7912;51.376;6.126;2023-04-01T04:07:13;12.70;99.90
15625;DHT22;7912;51.376;6.126;2023-04-01T04:09:41;12.70;99.90
15625;DHT22;7912;51.376;6.126;2023-04-01T04:12:08;12.70;99.90
15625;DHT22;7912;51.376;6.126;2023-04-01T04:14:36;12.70;99.90
15625;DHT22;7912;51.376;6.126;2023-04-01T04:17:03;12.70;99.90
15625;DHT22;7912;51.376;6.126;2023-04-01T04:19:34;12.70;99.90
15625;DHT22;7912;51.376;6.126;2023-04-01T04:22:01;12.70;99.90
15625;DHT22;7912;51.376;6.126;2023-04-01T04:24:29;12.70;99.90
15625;DHT22;7912;51.376;6.126;2023-04-01T04:26:56;12.70;99.90
15625;DHT22;7912;51.376;6.126;2023-04-01T04:29:24;12.70;99.90
15625;DHT22;7912;51.376;6.126;2023-04-01T04:31:51;12.70;99.90
15625;DHT22;7912;51.376;6.126;2023-04-01T04:34:19;12.70;99.90
15625;DHT22;7912;51.376;6.126;2023-04-01T04:36:46;12.70;99.90
15625;DHT22;7912;51.376;6.126;2023-04-01T04:39:14;12.70;99.90
15625;DHT22;7912;51.376;6.126;2023-04-01T04:41:42;12.60;99.90
15625;DHT22;7912;51.376;6.126;2023-04-01T04:44:10;12.60;99.90
15625;DHT22;7912;51.376;6.126;2023-04-01T04:46:38;12.60;99.90
15625;DHT22;7912;51.376;6.126;2023-04-01T04:49:06;12.60;99.90
15625;DHT22;7912;51.376;6.126;2023-04-01T04:51:34;12.60;99.90
15625;DHT22;7912;51.376;6.126;2023-04-01T04:54:09;12.60;99.90
15625;DHT22;7912;51.376;6.126;2023-04-01T04:56:36;12.60;99.90
15625;DHT22;7912;51.376;6.126;2023-04-01T04:59:05;12.60;99.90
15625;DHT22;7912;51.376;6.126;2023-04-01T05:01:33;12.60;99.90
15625;DHT22;7912;51.376;6.126;2023-04-01T05:04:00;12.60;99.90
15625;DHT22;7912;51.376;6.126;2023-04-01T05:06:28;12.60;99.90
15625;DHT22;7912;51.376;6.126;2023-04-01T05:08:56;12.60;99.90
15625;DHT22;7912;51.376;6.126;2023-04-01T05:11:23;12.60;99.90
15625;DHT22;7912;51.376;6.126;2023-04-01T05:13:52;12.60;99.90
15625;DHT22;7912;51.376;6.126;2023-04-01T05:16:20;12.60;99.90
15625;DHT22;7912;51.376;6.126;2023-04-01T05:18:48;12.60;99.90
15625;DHT22;7912;51.376;6.126;2023-04-01T05:21:16;12.60;99.90
15625;DHT22;7912;51.376;6.126;2023-04-01T05:23:44;12.50;99.90
15625;DHT22;7912;51.376;6.126;2023-04-01T05:26:13;12.50;99.90
15625;DHT22;7912;51.376;6.126;2023-04-01T05:28:42;12.50;99.90
15625;DHT22;7912;51.376;6.126;2023-04-01T05:31:09;12.50;99.90
15625;DHT22;7912;51.376;6.126;2023-04-01T05:33:37;12.50;99.90
15625;DHT22;7912;51.376;6.126;2023-04-01T05:36:14;12.50;99.90
15625;DHT22;7912;51.376;6.126;2023-04-01T05:38:43;12.50;99.90
15625;DHT22;7912;51.376;6.126;2023-04-01T05:41:13;12.50;99.90
15625;DHT22;7912;51.376;6.126;2023-04-01T05:43:42;12.50;99.90
15625;DHT22;7912;51.376;6.126;2023-04-01T05:46:10;12.50;99.90
15625;DHT22;7912;51.376;6.126;2023-04-01T05:48:38;12.50;99.90
15625;DHT22;7912;51.376;6.126;2023-04-01T05:51:05;12.50;99.90
15625;DHT22;7912;51.376;6.126;2023-04-01T05:53:33;12.50;99.90
15625;DHT22;7912;51.376;6.126;2023-04-01T05:56:04;12.50;99.90
15625;DHT22;7912;51.376;6.126;2023-04-01T05:58:33;12.50;99.90
15625;DHT22;7912;51.376;6.126;2023-04-01T06:01:10;12.40;99.90
15625;DHT22;7912;51.376;6.126;2023-04-01T06:03:42;12.40;99.90
15625;DHT22;7912;51.376;6.126;2023-04-01T06:06:24;12.40;99.90
15625;DHT22;7912;51.376;6.126;2023-04-01T06:08:56;12.40;99.90
15625;DHT22;7912;51.376;6.126;2023-04-01T06:24:07;12.50;99.90
15625;DHT22;7912;51.376;6.126;2023-04-01T06:35:49;12.50;99.90
15625;DHT22;7912;51.376;6.126;2023-04-01T06:38:48;12.50;99.90
15625;DHT22;7912;51.376;6.126;2023-04-01T06:41:25;12.50;99.90
15625;DHT22;7912;51.376;6.126;2023-04-01T06:44:29;12.50;99.90
15625;DHT22;7912;51.376;6.126;2023-04-01T06:56:25;12.50;99.90
15625;DHT22;7912;51.376;6.126;2023-04-01T06:59:17;12.50;99.90
15625;DHT22;7912;51.376;6.126;2023-04-01T07:01:55;12.50;99.90
15625;DHT22;7912;51.376;6.126;2023-04-01T07:04:39;12.60;99.90
15625;DHT22;7912;51.376;6.126;2023-04-01T07:13:25;12.60;99.90
15625;DHT22;7912;51.376;6.126;2023-04-01T07:16:34;12.60;99.90
15625;DHT22;7912;51.376;6.126;2023-04-01T07:19:27;12.60;99.90
15625;DHT22;7912;51.376;6.126;2023-04-01T07:22:32;12.60;99.90
15625;DHT22;7912;51.376;6.126;2023-04-01T07:25:45;12.60;99.90
15625;DHT22;7912;51.376;6.126;2023-04-01T07:28:31;12.60;99.90
15625;DHT22;7912;51.376;6.126;2023-04-01T07:37:15;12.70;99.90
15625;DHT22;7912;51.376;6.126;2023-04-01T07:39:57;12.70;99.90
15625;DHT22;7912;51.376;6.126;2023-04-01T07:49:36;12.70;99.90
15625;DHT22;7912;51.376;6.126;2023-04-01T08:09:52;12.90;99.90
15625;DHT22;7912;51.376;6.126;2023-04-01T08:15:26;12.90;99.90
15625;DHT22;7912;51.376;6.126;2023-04-01T08:18:13;13.00;99.90
15625;DHT22;7912;51.376;6.126;2023-04-01T08:20:57;13.00;99.90
15625;DHT22;7912;51.376;6.126;2023-04-01T08:23:35;13.10;99.90
15625;DHT22;7912;51.376;6.126;2023-04-01T08:29:14;13.30;99.90
15625;DHT22;7912;51.376;6.126;2023-04-01T08:34:38;13.50;99.90
15625;DHT22;7912;51.376;6.126;2023-04-01T08:37:17;13.60;99.90
15625;DHT22;7912;51.376;6.126;2023-04-01T08:40:10;13.70;99.90
15625;DHT22;7912;51.376;6.126;2023-04-01T08:52:47;13.90;99.90
15625;DHT22;7912;51.376;6.126;2023-04-01T08:58:46;14.00;99.90
15625;DHT22;7912;51.376;6.126;2023-04-01T09:32:35;14.30;99.90
15625;DHT22;7912;51.376;6.126;2023-04-01T09:35:47;14.30;99.90
15625;DHT22;7912;51.376;6.126;2023-04-01T09:39:09;14.30;99.90
15625;DHT22;7912;51.376;6.126;2023-04-01T09:41:32;14.30;99.90
15625;DHT22;7912;51.376;6.126;2023-04-01T09:44:15;14.20;99.90
15625;DHT22;7912;51.376;6.126;2023-04-01T10:02:27;14.20;99.90
15625;DHT22;7912;51.376;6.126;2023-04-01T10:21:11;14.40;99.90
15625;DHT22;7912;51.376;6.126;2023-04-01T10:27:34;14.50;99.90
15625;DHT22;7912;51.376;6.126;2023-04-01T10:36:33;14.70;99.90
15625;DHT22;7912;51.376;6.126;2023-04-01T10:42:52;14.70;99.90
15625;DHT22;7912;51.376;6.126;2023-04-01T11:01:27;14.40;99.90
15625;DHT22;7912;51.376;6.126;2023-04-01T11:10:15;14.20;99.90
15625;DHT22;7912;51.376;6.126;2023-04-01T11:13:27;14.20;99.90
15625;DHT22;7912;51.376;6.126;2023-04-01T11:25:09;14.10;99.90
15625;DHT22;7912;51.376;6.126;2023-04-01T11:36:59;14.10;99.90
15625;DHT22;7912;51.376;6.126;2023-04-01T11:43:32;14.10;99.90
15625;DHT22;7912;51.376;6.126;2023-04-01T11:46:28;14.00;99.90
15625;DHT22;7912;51.376;6.126;2023-04-01T11:58:25;14.00;99.90
15625;DHT22;7912;51.376;6.126;2023-04-01T12:10:20;14.10;99.90
15625;DHT22;7912;51.376;6.126;2023-04-01T12:20:33;14.30;99.90
15625;DHT22;7912;51.376;6.126;2023-04-01T12:23:50;14.40;99.90
15625;DHT22;7912;51.376;6.126;2023-04-01T12:27:06;14.50;99.90
15625;DHT22;7912;51.376;6.126;2023-04-01T12:30:14;14.60;99.90
15625;DHT22;7912;51.376;6.126;2023-04-01T12:39:50;14.70;99.90
15625;DHT22;7912;51.376;6.126;2023-04-01T13:06:39;15.10;99.90
15625;DHT22;7912;51.376;6.126;2023-04-01T13:09:45;15.20;99.90
15625;DHT22;7912;51.376;6.126;2023-04-01T13:13:04;15.20;99.90
15625;DHT22;7912;51.376;6.126;2023-04-01T13:23:42;15.20;99.90
15625;DHT22;7912;51.376;6.126;2023-04-01T13:33:01;15.30;99.90
15625;DHT22;7912;51.376;6.126;2023-04-01T13:43:02;15.40;99.90
15625;DHT22;7912;51.376;6.126;2023-04-01T13:45:58;15.50;99.90
15625;DHT22;7912;51.376;6.126;2023-04-01T13:51:41;15.50;99.90
15625;DHT22;7912;51.376;6.126;2023-04-01T14:03:42;15.20;99.90
15625;DHT22;7912;51.376;6.126;2023-04-01T14:21:43;14.80;99.90
15625;DHT22;7912;51.376;6.126;2023-04-01T14:50:07;14.60;99.90
15625;DHT22;7912;51.376;6.126;2023-04-01T14:52:58;14.60;99.90
15625;DHT22;7912;51.376;6.126;2023-04-01T15:13:31;14.30;99.90
15625;DHT22;7912;51.376;6.126;2023-04-01T15:27:21;14.20;99.90
15625;DHT22;7912;51.376;6.126;2023-04-01T15:37:39;14.10;99.90
15625;DHT22;7912;51.376;6.126;2023-04-01T15:41:15;14.10;99.90
15625;DHT22;7912;51.376;6.126;2023-04-01T16:00:43;14.10;99.90
15625;DHT22;7912;51.376;6.126;2023-04-01T16:10:05;14.00;99.90
15625;DHT22;7912;51.376;6.126;2023-04-01T16:21:53;13.80;99.90
15625;DHT22;7912;51.376;6.126;2023-04-01T16:28:14;13.70;99.90
15625;DHT22;7912;51.376;6.126;2023-04-01T16:31:10;13.70;99.90
15625;DHT22;7912;51.376;6.126;2023-04-01T16:34:01;13.70;99.90
15625;DHT22;7912;51.376;6.126;2023-04-01T16:40:41;13.60;99.90
15625;DHT22;7912;51.376;6.126;2023-04-01T16:43:21;13.60;99.90
15625;DHT22;7912;51.376;6.126;2023-04-01T16:49:33;13.60;99.90
15625;DHT22;7912;51.376;6.126;2023-04-01T16:57:17;13.50;99.90
15625;DHT22;7912;51.376;6.126;2023-04-01T17:02:49;13.60;99.90
15625;DHT22;7912;51.376;6.126;2023-04-01T17:05:56;13.60;99.90
15625;DHT22;7912;51.376;6.126;2023-04-01T17:23:33;13.60;99.90
15625;DHT22;7912;51.376;6.126;2023-04-01T17:26:59;13.60;99.90
15625;DHT22;7912;51.376;6.126;2023-04-01T17:35:43;13.60;99.90
15625;DHT22;7912;51.376;6.126;2023-04-01T17:53:19;13.50;99.90
15625;DHT22;7912;51.376;6.126;2023-04-01T17:56:39;13.50;99.90
15625;DHT22;7912;51.376;6.126;2023-04-01T17:59:36;13.50;99.90
15625;DHT22;7912;51.376;6.126;2023-04-01T18:08:12;13.40;99.90
15625;DHT22;7912;51.376;6.126;2023-04-01T18:11:12;13.40;99.90
15625;DHT22;7912;51.376;6.126;2023-04-01T18:14:22;13.40;99.90
15625;DHT22;7912;51.376;6.126;2023-04-01T18:17:12;13.40;99.90
15625;DHT22;7912;51.376;6.126;2023-04-01T18:23:09;13.40;99.90
15625;DHT22;7912;51.376;6.126;2023-04-01T18:25:45;13.40;99.90
15625;DHT22;7912;51.376;6.126;2023-04-01T18:28:32;13.40;99.90
15625;DHT22;7912;51.376;6.126;2023-04-01T18:34:15;13.40;99.90
15625;DHT22;7912;51.376;6.126;2023-04-01T18:36:59;13.40;99.90
15625;DHT22;7912;51.376;6.126;2023-04-01T18:39:42;13.40;99.90
15625;DHT22;7912;51.376;6.126;2023-04-01T18:45:18;13.40;99.90
15625;DHT22;7912;51.376;6.126;2023-04-01T18:51:46;13.40;99.90
15625;DHT22;7912;51.376;6.126;2023-04-01T18:57:52;13.40;99.90
15625;DHT22;7912;51.376;6.126;2023-04-01T19:04:23;13.30;99.90
15625;DHT22;7912;51.376;6.126;2023-04-01T19:10:06;13.20;99.90
15625;DHT22;7912;51.376;6.126;2023-04-01T19:22:20;13.20;99.90
15625;DHT22;7912;51.376;6.126;2023-04-01T19:29:02;13.20;99.90
15625;DHT22;7912;51.376;6.126;2023-04-01T19:46:17;13.00;99.90
15625;DHT22;7912;51.376;6.126;2023-04-01T20:01:22;12.90;99.90
15625;DHT22;7912;51.376;6.126;2023-04-01T20:04:22;12.80;99.90
15625;DHT22;7912;51.376;6.126;2023-04-01T20:13:50;12.80;99.90
15625;DHT22;7912;51.376;6.126;2023-04-01T20:19:37;12.70;99.90
15625;DHT22;7912;51.376;6.126;2023-04-01T20:22:24;12.70;99.90
15625;DHT22;7912;51.376;6.126;2023-04-01T20:37:49;12.60;99.90
15625;DHT22;7912;51.376;6.126;2023-04-01T20:40:32;12.50;99.90
15625;DHT22;7912;51.376;6.126;2023-04-01T21:04:12;12.30;99.90
15625;DHT22;7912;51.376;6.126;2023-04-01T21:07:28;12.30;99.90
15625;DHT22;7912;51.376;6.126;2023-04-01T21:16:15;12.20;99.90
15625;DHT22;7912;51.376;6.126;2023-04-01T21:34:40;12.00;99.90
15625;DHT22;7912;51.376;6.126;2023-04-01T21:41:31;12.00;99.90
15625;DHT22;7912;51.376;6.126;2023-04-01T22:08:33;11.70;99.90
15625;DHT22;7912;51.376;6.126;2023-04-01T22:14:59;11.70;99.90
15625;DHT22;7912;51.376;6.126;2023-04-01T22:18:29;11.60;99.90
15625;DHT22;7912;51.376;6.126;2023-04-01T22:21:15;11.60;99.90
15625;DHT22;7912;51.376;6.126;2023-04-01T22:24:20;11.50;99.90
15625;DHT22;7912;51.376;6.126;2023-04-01T22:32:48;11.40;99.90
15625;DHT22;7912;51.376;6.126;2023-04-01T22:47:40;11.20;99.90
15625;DHT22;7912;51.376;6.126;2023-04-01T22:56:11;11.20;99.90
15625;DHT22;7912;51.376;6.126;2023-04-01T22:58:50;11.20;99.90
15625;DHT22;7912;51.376;6.126;2023-04-01T23:01:30;11.10;99.90
15625;DHT22;7912;51.376;6.126;2023-04-01T23:04:04;11.10;99.90
15625;DHT22;7912;51.376;6.126;2023-04-01T23:06:39;11.10;99.90
15625;DHT22;7912;51.376;6.126;2023-04-01T23:09:33;11.00;99.90
15625;DHT22;7912;51.376;6.126;2023-04-01T23:12:05;11.00;99.90
15625;DHT22;7912;51.376;6.126;2023-04-01T23:14:47;11.00;99.90
15625;DHT22;7912;51.376;6.126;2023-04-01T23:17:41;11.00;99.90
15625;DHT22;7912;51.376;6.126;2023-04-01T23:26:39;10.90;99.90
15625;DHT22;7912;51.376;6.126;2023-04-01T23:29:25;10.80;99.90
15625;DHT22;7912;51.376;6.126;2023-04-01T23:31:59;10.80;99.90
15625;DHT22;7912;51.376;6.126;2023-04-01T23:34:32;10.80;99.90
15625;DHT22;7912;51.376;6.126;2023-04-01T23:37:12;10.80;99.90
15625;DHT22;7912;51.376;6.126;2023-04-01T23:39:45;10.70;99.90
15625;DHT22;7912;51.376;6.126;2023-04-01T23:42:29;10.70;99.90
15625;DHT22;7912;51.376;6.126;2023-04-01T23:45:05;10.70;99.90
15625;DHT22;7912;51.376;6.126;2023-04-01T23:47:40;10.70;99.90
15625;DHT22;7912;51.376;6.126;2023-04-01T23:50:25;10.70;99.90
15625;DHT22;7912;51.376;6.126;2023-04-01T23:53:04;10.70;99.90
15625;DHT22;7912;51.376;6.126;2023-04-01T23:55:43;10.70;99.90
